Time;durP1;ratioP1;P1;durP2;ratioP2;P2;SDS_P1;SDS_P2;PMS_P1;PMS_P2;Temp;Humidity;BMP_temperature;BMP_pressure;BME280_temperature;BME280_humidity;BME280_pressure;Samples;Min_cycle;Max_cycle;Signal;HPM_P1;HPM_P2
2024/01/17 07:01:26;;;;;;;0.40;0.40;;;0.40;99.90;2.90;99105.00;;;;6248251;22;1539828;-74
2024/01/17 07:04:30;;;;;;;0.47;0.47;;;0.30;99.90;2.60;99108.00;;;;6225446;22;20770;-74
2024/01/17 07:06:55;;;;;;;0.87;0.87;;;0.10;99.90;2.60;99120.00;;;;6278498;22;20187;-74
2024/01/17 07:09:30;;;;;;;0.30;0.30;;;0.10;99.90;2.70;99103.00;;;;6250983;22;20156;-74
2024/01/17 07:12:02;;;;;;;0.70;0.70;;;0.20;99.90;3.10;99078.00;;;;6278187;22;20223;-74
2024/01/17 07:14:28;;;;;;;0.40;0.40;;;0.20;99.90;3.20;99096.00;;;;6250603;22;20153;-74
2024/01/17 07:16:54;;;;;;;1.83;1.03;;;0.40;99.90;2.80;99100.00;;;;6251648;22;20152;-74
2024/01/17 07:19:23;;;;;;;8.93;2.67;;;0.30;99.90;2.60;99101.00;;;;6251535;22;20141;-74
2024/01/17 07:21:56;;;;;;;0.30;0.30;;;0.30;99.90;3.00;99095.00;;;;6252099;22;20494;-73
2024/01/17 07:24:22;;;;;;;0.30;0.30;;;0.20;99.90;3.00;99090.00;;;;6277438;22;20466;-74
2024/01/17 07:26:53;;;;;;;0.90;0.90;;;0.30;99.90;3.80;99112.00;;;;6251349;22;20225;-74
2024/01/17 07:29:31;;;;;;;0.47;0.47;;;0.70;99.90;2.80;99102.00;;;;6251041;22;20192;-67
2024/01/17 07:32:07;;;;;;;0.70;0.70;;;0.50;99.90;1.50;99081.00;;;;6251476;22;20149;-69
2024/01/17 07:34:39;;;;;;;0.70;0.50;;;0.10;99.90;1.60;99027.00;;;;6277635;22;20468;-77
2024/01/17 07:37:05;;;;;;;2.30;1.77;;;-0.30;99.90;2.10;99070.00;;;;6250957;22;20156;-74
2024/01/17 07:39:35;;;;;;;0.83;0.83;;;-0.20;99.90;2.70;99051.00;;;;6278113;22;20496;-74
2024/01/17 07:42:04;;;;;;;0.60;0.60;;;0.00;99.90;2.70;99048.00;;;;6278030;22;20172;-74
2024/01/17 07:44:35;;;;;;;0.53;0.53;;;0.10;99.90;3.20;99057.00;;;;6251231;22;20233;-75
2024/01/17 07:47:02;;;;;;;0.87;0.87;;;0.30;99.90;1.30;99065.00;;;;6251264;22;20145;-73
2024/01/17 07:49:29;;;;;;;1.13;1.13;;;0.10;99.90;1.90;99035.00;;;;6278369;22;20191;-75
2024/01/17 07:51:58;;;;;;;1.60;1.53;;;0.00;99.90;2.40;99018.00;;;;6250986;22;20148;-75
2024/01/17 07:54:48;;;;;;;0.60;0.60;;;-0.10;99.90;2.90;99028.00;;;;6251513;22;20151;-75
2024/01/17 07:57:19;;;;;;;0.30;0.30;;;0.10;99.90;2.50;99044.00;;;;6251145;22;20153;-75
2024/01/17 07:59:55;;;;;;;0.30;0.30;;;0.20;99.90;3.40;99031.00;;;;6250052;22;20175;-75
2024/01/17 08:02:23;;;;;;;0.60;0.60;;;0.30;99.90;3.20;99052.00;;;;6225127;22;20180;-75
2024/01/17 08:05:33;;;;;;;2.20;2.03;;;0.60;99.90;2.90;99030.00;;;;6250435;22;20483;-75
2024/01/17 08:08:24;;;;;;;0.60;0.60;;;0.40;99.90;3.10;99029.00;;;;6277272;22;20168;-75
2024/01/17 08:10:50;;;;;;;0.80;0.80;;;0.60;99.90;2.90;99011.00;;;;6242952;22;20597;-75
2024/01/17 08:13:22;;;;;;;0.60;0.60;;;0.40;99.90;1.50;98991.00;;;;6277692;22;20171;-77
2024/01/17 08:15:47;;;;;;;0.30;0.30;;;0.00;99.90;1.50;98982.00;;;;6249882;22;20196;-75
2024/01/17 08:18:24;;;;;;;0.77;0.77;;;-0.30;99.90;2.50;98962.00;;;;6278066;22;20137;-75
2024/01/17 08:20:49;;;;;;;0.30;0.30;;;-0.10;99.90;3.20;98972.00;;;;6223558;22;20160;-76
2024/01/17 08:23:21;;;;;;;0.50;0.50;;;0.20;99.90;2.60;98985.00;;;;6275202;22;20183;-78
2024/01/17 08:25:53;;;;;;;0.30;0.30;;;0.50;99.90;2.40;98967.00;;;;6250486;22;20156;-78
2024/01/17 08:28:27;;;;;;;1.43;1.33;;;0.20;99.90;1.40;98981.00;;;;6276846;22;20155;-79
2024/01/17 08:31:01;;;;;;;1.00;1.00;;;0.10;99.90;1.40;98915.00;;;;6225043;22;20242;-76
2024/01/17 08:33:32;;;;;;;1.80;0.85;;;-0.20;99.90;1.70;98966.00;;;;6249230;22;20379;-76
2024/01/17 08:36:05;;;;;;;1.07;0.97;;;-0.20;99.90;1.50;98889.00;;;;6250734;22;20146;-75
2024/01/17 08:38:36;;;;;;;0.37;0.37;;;-0.20;99.90;2.70;98958.00;;;;6225581;22;20575;-75
2024/01/17 08:41:08;;;;;;;4.30;3.90;;;-0.10;99.90;2.40;98965.00;;;;6250513;22;20179;-76
2024/01/17 08:43:42;;;;;;;0.63;0.63;;;0.10;99.90;2.60;98941.00;;;;6250796;22;20500;-76
2024/01/17 08:46:17;;;;;;;0.60;0.60;;;0.20;99.90;2.60;98887.00;;;;6250205;22;20136;-77
2024/01/17 08:48:49;;;;;;;5.73;4.53;;;0.20;99.90;2.70;98946.00;;;;6250559;22;20140;-76
2024/01/17 08:51:21;;;;;;;1.23;1.23;;;0.10;99.90;2.70;98953.00;;;;6277725;22;20217;-76
2024/01/17 08:53:53;;;;;;;1.90;1.73;;;0.30;99.90;2.30;98938.00;;;;6250934;22;20642;-75
2024/01/17 08:56:19;;;;;;;2.10;1.60;;;0.30;99.90;2.90;98943.00;;;;6250116;22;20495;-76
2024/01/17 08:58:53;;;;;;;2.77;2.00;;;0.30;99.90;3.00;98927.00;;;;6249015;22;20156;-76
2024/01/17 09:01:25;;;;;;;0.60;0.60;;;0.40;99.90;2.30;98923.00;;;;6250136;22;20175;-76
2024/01/17 09:03:56;;;;;;;0.40;0.40;;;0.20;99.90;2.80;98917.00;;;;6249892;22;20172;-76
2024/01/17 09:06:22;;;;;;;0.50;0.40;;;0.30;99.90;3.00;98921.00;;;;6277303;22;20147;-76
2024/01/17 09:08:55;;;;;;;0.30;0.30;;;0.40;99.90;3.80;98930.00;;;;6277260;22;20220;-76
2024/01/17 09:11:21;;;;;;;1.60;1.50;;;0.70;99.90;2.00;98930.00;;;;6249096;22;20141;-76
2024/01/17 09:13:50;;;;;;;1.60;1.43;;;0.60;99.90;2.80;98930.00;;;;6250018;22;20152;-76
2024/01/17 09:16:22;;;;;;;0.70;0.70;;;0.50;99.90;3.20;98930.00;;;;6276375;22;20648;-76
2024/01/17 09:19:14;;;;;;;0.43;0.43;;;0.60;99.90;3.40;98903.00;;;;6249985;22;20145;-75
2024/01/17 09:21:44;;;;;;;0.30;0.30;;;0.70;99.90;3.90;98927.00;;;;6276342;22;20145;-76
2024/01/17 09:24:10;;;;;;;3.30;0.70;;;0.90;99.90;3.20;98951.00;;;;6275599;22;20164;-76
2024/01/17 09:26:49;;;;;;;0.80;0.80;;;0.70;99.90;2.40;98932.00;;;;6277345;22;20141;-79
2024/01/17 09:29:29;;;;;;;1.50;1.50;;;0.50;99.90;2.70;98841.00;;;;6250579;22;20168;-78
2024/01/17 09:32:00;;;;;;;2.83;1.70;;;0.30;99.90;3.40;98919.00;;;;6223497;22;20605;-76
2024/01/17 09:34:36;;;;;;;0.30;0.30;;;0.60;99.90;3.30;98902.00;;;;6249174;22;20161;-79
2024/01/17 09:37:11;;;;;;;0.73;0.73;;;0.70;99.90;4.00;98913.00;;;;6250350;22;20166;-79
2024/01/17 09:40:05;;;;;;;1.17;1.17;;;0.90;99.90;2.90;98895.00;;;;6250310;22;20197;-79
2024/01/17 09:42:39;;;;;;;0.40;0.40;;;0.80;99.90;2.90;98908.00;;;;6223920;22;20237;-79
2024/01/17 09:45:17;;;;;;;0.30;0.30;;;0.50;99.90;3.20;98907.00;;;;6250091;22;20136;-79
2024/01/17 09:47:55;;;;;;;2.10;1.03;;;0.60;99.90;3.80;98893.00;;;;6224731;22;20161;-79
2024/01/17 09:50:46;;;;;;;2.30;1.17;;;0.90;99.90;3.70;98916.00;;;;6274773;22;20160;-79
2024/01/17 09:53:34;;;;;;;0.30;0.30;;;0.90;99.90;3.30;98843.00;;;;6249660;22;20151;-79
2024/01/17 09:56:46;;;;;;;0.73;0.73;;;0.80;99.90;3.70;98918.00;;;;6224341;22;20240;-79
2024/01/17 09:59:42;;;;;;;0.87;0.87;;;0.90;99.90;3.50;98914.00;;;;6249042;22;20186;-78
2024/01/17 10:02:08;;;;;;;7.57;2.60;;;1.00;99.90;3.10;98903.00;;;;6228903;22;20250;-78
2024/01/17 10:04:46;;;;;;;2.10;2.00;;;0.80;99.90;3.10;98797.00;;;;6224421;22;20168;-78
2024/01/17 10:07:29;;;;;;;0.40;0.40;;;0.70;99.90;4.20;98819.00;;;;6248605;22;20137;-78
2024/01/17 10:10:30;;;;;;;1.10;1.03;;;1.00;99.90;4.10;98844.00;;;;6249667;22;20157;-80
2024/01/17 10:16:44;;;;;;;1.37;0.83;;;0.90;99.90;4.00;98868.00;;;;6276909;22;20218;-84
2024/01/17 10:19:39;;;;;;;2.97;1.23;;;1.10;99.90;4.20;98877.00;;;;6250240;22;20153;-81
2024/01/17 10:33:41;;;;;;;0.20;0.20;;;-0.30;99.90;2.00;98777.00;;;;5069387;28;20581;-80
2024/01/17 10:36:14;;;;;;;0.90;0.90;;;0.00;99.90;2.80;98759.00;;;;5037077;28;20555;-81
2024/01/17 10:39:06;;;;;;;3.43;1.87;;;0.40;99.90;2.90;98821.00;;;;5047172;28;20193;-80
2024/01/17 10:41:59;;;;;;;4.27;1.37;;;0.60;99.90;3.70;98828.00;;;;5049067;28;20205;-80
2024/01/17 10:44:29;;;;;;;0.30;0.30;;;0.90;99.90;4.40;98693.00;;;;5058169;28;20273;-81
2024/01/17 10:46:55;;;;;;;0.40;0.40;;;1.40;99.90;4.20;98808.00;;;;5031645;28;20184;-81
2024/01/17 10:49:27;;;;;;;1.03;1.03;;;1.40;99.90;4.30;98752.00;;;;5048322;28;20198;-81
2024/01/17 10:52:35;;;;;;;0.63;0.63;;;1.50;99.90;4.90;98829.00;;;;5031545;28;20305;-81
2024/01/17 10:55:13;;;;;;;2.63;2.43;;;1.90;99.90;3.80;98767.00;;;;5043634;28;20189;-80
2024/01/17 10:57:50;;;;;;;0.30;0.30;;;1.70;99.90;3.80;98823.00;;;;5049902;28;20205;-82
2024/01/17 11:00:26;;;;;;;0.43;0.40;;;1.30;99.90;4.30;98828.00;;;;5033110;28;20197;-77
2024/01/17 11:03:08;;;;;;;0.60;0.60;;;1.50;99.90;3.80;98823.00;;;;5048310;28;20198;-77
2024/01/17 11:06:14;;;;;;;0.60;0.57;;;1.40;99.90;4.00;98816.00;;;;5039080;28;20255;-78
2024/01/17 11:08:42;;;;;;;0.63;0.63;;;1.50;99.90;4.30;98812.00;;;;5047960;28;20272;-77
2024/01/17 11:11:10;;;;;;;0.20;0.20;;;1.60;99.90;3.80;98813.00;;;;5048124;28;20244;-78
2024/01/17 11:13:42;;;;;;;0.70;0.70;;;1.40;99.90;4.00;98742.00;;;;5047963;28;20197;-78
2024/01/17 11:16:15;;;;;;;0.43;0.43;;;1.50;99.90;3.70;98761.00;;;;5031548;28;20608;-78
2024/01/17 11:18:49;;;;;;;0.70;0.70;;;1.50;99.90;4.80;98743.00;;;;5047963;28;20190;-78
2024/01/17 11:21:21;;;;;;;1.23;0.77;;;1.90;99.90;5.20;98792.00;;;;5047502;28;20205;-78
2024/01/17 11:24:08;;;;;;;1.60;0.70;;;2.10;99.90;4.40;98800.00;;;;5064810;28;20182;-82
2024/01/17 11:27:18;;;;;;;1.03;1.03;;;2.10;99.90;4.90;98799.00;;;;5048010;28;20268;-81
2024/01/17 11:30:40;;;;;;;3.20;2.00;;;2.10;99.90;4.90;98788.00;;;;5004719;28;20195;-80
2024/01/17 11:33:38;;;;;;;0.60;0.60;;;2.00;99.90;5.20;98765.00;;;;4948463;29;20229;-82
2024/01/17 11:36:44;;;;;;;1.27;1.17;;;2.20;99.90;4.70;98794.00;;;;4932733;29;20285;-82
2024/01/17 11:39:33;;;;;;;0.80;0.80;;;2.20;99.90;5.00;98740.00;;;;4946283;29;20195;-81
2024/01/17 11:42:19;;;;;;;1.50;1.10;;;2.00;99.90;4.80;98774.00;;;;4948631;29;20205;-82
2024/01/17 11:45:11;;;;;;;0.57;0.57;;;2.00;99.90;4.60;98750.00;;;;4914683;29;20720;-82
2024/01/17 11:48:20;;;;;;;0.97;0.97;;;2.00;99.90;5.20;98742.00;;;;4918380;29;20203;-82
2024/01/17 11:51:14;;;;;;;0.30;0.30;;;2.00;99.90;5.10;98763.00;;;;4935663;29;20229;-81
2024/01/17 11:53:55;;;;;;;0.40;0.40;;;2.10;99.90;4.70;98755.00;;;;4969966;28;20195;-73
2024/01/17 11:56:30;;;;;;;0.33;0.33;;;2.00;99.90;4.50;98701.00;;;;5025398;28;20211;-73
2024/01/17 11:59:23;;;;;;;1.37;1.23;;;1.90;99.90;4.20;98766.00;;;;5034069;28;20193;-73
2024/01/17 12:02:02;;;;;;;0.67;0.67;;;1.90;99.90;4.50;98725.00;;;;5028380;28;20195;-73
2024/01/17 12:05:02;;;;;;;0.43;0.43;;;1.80;99.90;4.70;98743.00;;;;5049407;28;20195;-73
2024/01/17 12:08:15;;;;;;;1.17;1.17;;;2.00;99.90;4.40;98730.00;;;;5025308;28;20198;-73
2024/01/17 12:11:18;;;;;;;0.40;0.40;;;1.80;99.90;5.00;98713.00;;;;5041138;28;20190;-73
2024/01/17 12:14:47;;;;;;;4.53;4.33;;;2.10;99.90;5.10;98715.00;;;;5014389;28;20195;-73
2024/01/17 12:17:56;;;;;;;1.37;1.37;;;2.20;99.90;4.90;98712.00;;;;5002029;28;20190;-73
2024/01/17 12:21:12;;;;;;;0.30;0.30;;;2.20;99.90;4.30;98706.00;;;;5032639;28;20195;-73
2024/01/17 12:24:15;;;;;;;1.30;1.03;;;2.00;99.90;3.70;98677.00;;;;5015910;28;20281;-66
2024/01/17 12:27:12;;;;;;;0.53;0.50;;;1.60;99.90;4.30;98603.00;;;;5029228;28;20588;-73
2024/01/17 12:30:01;;;;;;;0.30;0.30;;;1.60;99.90;4.60;98631.00;;;;5039337;28;20198;-73
2024/01/17 12:33:04;;;;;;;0.40;0.40;;;1.80;99.90;3.50;98669.00;;;;5042774;28;20234;-73
2024/01/17 12:36:37;;;;;;;1.33;0.40;;;1.80;99.90;3.70;98647.00;;;;5031805;28;20241;-73
2024/01/17 12:39:36;;;;;;;3.67;3.37;;;1.60;99.90;2.70;98614.00;;;;5022366;28;20213;-73
2024/01/17 12:42:18;;;;;;;0.60;0.60;;;1.10;99.90;4.00;98613.00;;;;5030778;28;20199;-67
2024/01/17 12:44:59;;;;;;;0.20;0.20;;;1.40;99.90;5.10;98613.00;;;;5033419;28;20292;-73
2024/01/17 12:47:26;;;;;;;0.60;0.60;;;1.90;99.90;4.30;98624.00;;;;5033101;28;20722;-73
2024/01/17 12:49:58;;;;;;;5.43;2.00;;;1.80;99.90;3.40;98595.00;;;;5031905;28;20189;-73
2024/01/17 12:52:38;;;;;;;0.20;0.20;;;1.60;99.90;4.30;98553.00;;;;5032242;28;20206;-72
2024/01/17 12:55:10;;;;;;;1.20;1.10;;;1.60;99.90;4.40;98613.00;;;;5003273;28;20664;-74
2024/01/17 12:57:36;;;;;;;2.20;1.90;;;1.90;99.90;5.10;98568.00;;;;5031657;28;20187;-72
2024/01/17 13:00:10;;;;;;;0.30;0.30;;;2.10;99.90;4.40;98616.00;;;;5032942;28;20240;-72
2024/01/17 13:02:39;;;;;;;0.70;0.70;;;2.00;99.90;5.00;98603.00;;;;5032742;28;20717;-74
2024/01/17 13:05:09;;;;;;;0.57;0.57;;;2.20;99.90;5.50;98604.00;;;;5021786;28;20187;-74
2024/01/17 13:07:35;;;;;;;0.40;0.40;;;2.40;99.90;5.50;98629.00;;;;5033750;28;20195;-72
2024/01/17 13:10:23;;;;;;;0.73;0.53;;;2.50;99.90;5.80;98645.00;;;;5031626;28;20221;-72
2024/01/17 13:12:49;;;;;;;3.17;2.03;;;2.70;99.90;5.30;98653.00;;;;5033326;28;20218;-72
2024/01/17 13:15:24;;;;;;;0.40;0.40;;;2.70;99.90;5.50;98644.00;;;;5018765;28;20229;-74
2024/01/17 13:17:58;;;;;;;2.70;2.53;;;2.40;99.90;4.10;98666.00;;;;5010148;28;20186;-74
2024/01/17 13:20:27;;;;;;;1.83;1.73;;;2.40;99.90;2.30;98649.00;;;;5033463;28;20196;-72
2024/01/17 13:22:57;;;;;;;0.37;0.37;;;1.40;99.90;4.10;98571.00;;;;5032232;28;20183;-72
2024/01/17 13:25:29;;;;;;;8.50;1.90;;;1.40;99.90;3.80;98531.00;;;;5016723;28;20183;-72
2024/01/17 13:28:05;;;;;;;1.43;1.33;;;1.70;99.90;3.70;98570.00;;;;5046532;28;20221;-72
2024/01/17 13:30:37;;;;;;;2.83;1.23;;;1.70;99.90;2.60;98584.00;;;;5032512;28;20217;-72
2024/01/17 13:33:08;;;;;;;0.30;0.30;;;1.50;99.90;3.60;98502.00;;;;5030288;28;20210;-72
2024/01/17 13:35:50;;;;;;;0.60;0.60;;;1.40;99.90;4.60;98581.00;;;;5023164;28;20213;-72
2024/01/17 13:38:17;;;;;;;1.80;1.70;;;1.80;99.90;5.40;98582.00;;;;5017320;28;20186;-72
2024/01/17 13:40:46;;;;;;;15.83;1.93;;;2.30;99.90;5.50;98578.00;;;;5031945;28;20183;-72
2024/01/17 13:43:14;;;;;;;0.33;0.33;;;2.60;99.90;5.50;98586.00;;;;5015484;28;20190;-72
2024/01/17 13:45:43;;;;;;;1.17;1.17;;;2.60;99.90;4.50;98559.00;;;;5031968;28;20179;-71
2024/01/17 13:48:12;;;;;;;0.30;0.30;;;2.30;99.90;3.70;98493.00;;;;5015346;28;20269;-72
2024/01/17 13:51:12;;;;;;;0.60;0.60;;;1.90;99.90;3.30;98505.00;;;;5031227;28;20672;-72
2024/01/17 13:54:14;;;;;;;1.70;1.60;;;1.50;99.90;3.70;98535.00;;;;5031170;28;20183;-72
2024/01/17 13:57:26;;;;;;;2.73;2.53;;;1.70;99.90;3.20;98539.00;;;;5029787;28;20194;-72
2024/01/17 14:00:16;;;;;;;0.77;0.77;;;1.60;99.90;3.40;98535.00;;;;5031969;28;20218;-71
2024/01/17 14:03:08;;;;;;;2.10;1.63;;;1.60;99.90;3.90;98531.00;;;;4997654;28;20226;-71
2024/01/17 14:05:59;;;;;;;2.43;1.70;;;1.70;99.90;3.40;98524.00;;;;5035371;28;20221;-72
2024/01/17 14:08:55;;;;;;;2.17;1.70;;;1.60;99.90;3.50;98522.00;;;;5032388;28;20198;-72
2024/01/17 14:11:47;;;;;;;1.50;0.60;;;1.60;99.90;4.40;98468.00;;;;5029359;28;20193;-72
2024/01/17 14:14:36;;;;;;;0.63;0.63;;;1.80;99.90;4.10;98512.00;;;;5064460;28;20171;-72
2024/01/17 14:17:42;;;;;;;1.63;1.33;;;1.90;99.90;3.80;98518.00;;;;5027823;28;20198;-72
2024/01/17 14:20:51;;;;;;;2.67;2.57;;;1.90;99.90;4.40;98508.00;;;;5035720;28;20229;-72
2024/01/17 14:23:57;;;;;;;1.50;1.50;;;1.90;99.90;4.10;98525.00;;;;5030653;28;20240;-72
2024/01/17 14:27:06;;;;;;;4.00;3.50;;;1.90;99.90;3.10;98520.00;;;;5023824;28;20289;-72
2024/01/17 14:29:48;;;;;;;2.33;2.27;;;1.70;99.90;4.10;98518.00;;;;5014071;28;20190;-72
2024/01/17 14:32:41;;;;;;;1.43;1.23;;;1.90;99.90;4.70;98514.00;;;;5014808;28;20309;-72
2024/01/17 14:35:30;;;;;;;0.80;0.80;;;2.00;99.90;4.80;98524.00;;;;5003334;28;20195;-72
2024/01/17 14:38:24;;;;;;;3.07;2.83;;;2.10;99.90;3.60;98535.00;;;;5021317;28;20274;-72
2024/01/17 14:41:13;;;;;;;0.80;0.80;;;2.10;99.90;3.20;98508.00;;;;5027634;28;20178;-72
2024/01/17 14:44:19;;;;;;;0.30;0.30;;;1.70;99.90;3.90;98525.00;;;;5030989;28;20265;-72
2024/01/17 14:47:16;;;;;;;1.73;1.63;;;1.70;99.90;4.70;98517.00;;;;5027956;28;20240;-72
2024/01/17 14:49:47;;;;;;;3.33;3.07;;;2.10;99.90;3.80;98539.00;;;;5031304;28;20179;-72
2024/01/17 14:52:56;;;;;;;0.90;0.90;;;2.20;99.90;3.30;98515.00;;;;5029177;28;20198;-72
2024/01/17 14:55:44;;;;;;;1.43;1.43;;;1.80;99.90;4.00;98523.00;;;;5021781;28;20286;-72
2024/01/17 14:58:41;;;;;;;3.47;3.13;;;2.00;99.90;3.40;98537.00;;;;5030821;28;20178;-72
2024/01/17 15:01:47;;;;;;;1.53;1.53;;;1.90;99.90;3.90;98511.00;;;;5031118;28;20191;-72
2024/01/17 15:08:23;;;;;;;0.80;0.80;;;1.90;99.90;4.70;98547.00;;;;5030454;28;20234;-72
2024/01/17 15:11:09;;;;;;;2.37;1.63;;;2.20;99.90;3.90;98546.00;;;;5032660;28;20294;-72
2024/01/17 15:14:13;;;;;;;2.40;1.80;;;2.10;99.90;4.00;98551.00;;;;5047450;28;20186;-72
2024/01/17 15:16:39;;;;;;;0.43;0.43;;;2.00;99.90;3.80;98489.00;;;;5014767;28;20191;-72
2024/01/17 15:19:11;;;;;;;0.30;0.30;;;1.90;99.90;4.60;98549.00;;;;5032548;28;20186;-72
2024/01/17 15:21:38;;;;;;;0.30;0.30;;;2.00;99.90;4.60;98551.00;;;;5034228;28;20191;-71
2024/01/17 15:24:12;;;;;;;1.60;1.50;;;2.20;99.90;3.80;98540.00;;;;5034201;28;20228;-74
2024/01/17 15:27:04;;;;;;;1.67;1.57;;;2.00;99.90;4.50;98550.00;;;;5034442;28;20194;-74
2024/01/17 15:29:30;;;;;;;1.17;1.17;;;2.10;99.90;3.70;98511.00;;;;5058839;28;20222;-73
2024/01/17 15:31:56;;;;;;;0.30;0.30;;;1.90;99.90;4.50;98546.00;;;;5033242;28;20301;-73
2024/01/17 15:34:25;;;;;;;1.63;1.53;;;2.00;99.90;5.50;98571.00;;;;5023935;28;20252;-72
2024/01/17 15:36:53;;;;;;;0.40;0.40;;;2.60;99.90;4.50;98567.00;;;;5009678;28;20183;-72
2024/01/17 15:40:07;;;;;;;4.20;3.83;;;2.50;99.90;4.30;98581.00;;;;5035608;28;20197;-72
2024/01/17 15:42:40;;;;;;;0.70;0.70;;;2.20;99.90;4.70;98565.00;;;;5034174;28;20197;-73
2024/01/17 15:45:42;;;;;;;1.73;1.60;;;2.30;99.90;4.00;98565.00;;;;5034028;28;20182;-72
2024/01/17 15:48:51;;;;;;;0.43;0.43;;;2.20;99.90;4.70;98567.00;;;;5035684;28;20192;-71
2024/01/17 15:51:52;;;;;;;0.97;0.70;;;2.40;99.90;4.30;98565.00;;;;5016967;28;20199;-72
2024/01/17 15:54:40;;;;;;;0.50;0.50;;;2.30;99.90;5.00;98583.00;;;;5015743;28;20200;-72
2024/01/17 15:57:49;;;;;;;2.10;2.00;;;2.40;99.90;5.40;98531.00;;;;5029227;28;20179;-72
2024/01/17 16:00:37;;;;;;;0.63;0.63;;;2.60;99.90;6.00;98590.00;;;;5033142;28;20193;-72
2024/01/17 16:03:13;;;;;;;0.90;0.90;;;2.70;99.90;5.60;98590.00;;;;5016696;28;20626;-72
2024/01/17 16:06:16;;;;;;;0.87;0.87;;;2.90;99.90;6.60;98603.00;;;;5033429;28;20182;-73
2024/01/17 16:09:03;;;;;;;0.30;0.30;;;3.10;99.90;6.10;98627.00;;;;5034880;28;20552;-72
2024/01/17 16:11:51;;;;;;;0.87;0.87;;;3.20;99.90;6.40;98607.00;;;;5033963;28;20214;-72
2024/01/17 16:14:41;;;;;;;1.00;1.00;;;3.20;99.90;5.00;98594.00;;;;5017682;28;20198;-72
2024/01/17 16:17:12;;;;;;;0.43;0.43;;;2.90;99.90;5.70;98580.00;;;;5022654;28;20187;-72
2024/01/17 16:19:42;;;;;;;1.00;1.00;;;2.80;99.90;5.20;98623.00;;;;5021618;28;20271;-72
2024/01/17 16:22:19;;;;;;;0.93;0.93;;;2.50;99.90;4.90;98617.00;;;;5061606;28;20191;-72
2024/01/17 16:25:29;;;;;;;0.73;0.70;;;2.40;99.90;5.20;98616.00;;;;5015573;28;20197;-72
2024/01/17 16:28:11;;;;;;;0.20;0.20;;;2.40;99.90;4.70;98605.00;;;;5029287;28;20202;-72
2024/01/17 16:30:54;;;;;;;0.73;0.73;;;2.30;99.90;4.90;98605.00;;;;5049427;28;20189;-72
2024/01/17 16:33:40;;;;;;;0.50;0.50;;;2.30;99.90;5.70;98606.00;;;;5033076;28;20218;-72
2024/01/17 16:36:11;;;;;;;0.73;0.73;;;2.50;99.90;6.10;98627.00;;;;5038561;28;20197;-68
2024/01/17 16:38:54;;;;;;;7.77;2.13;;;2.90;99.90;6.30;98574.00;;;;5033313;28;20185;-73
2024/01/17 16:41:38;;;;;;;1.30;1.20;;;2.90;99.90;4.70;98684.00;;;;5032966;28;20221;-73
2024/01/17 16:44:13;;;;;;;3.90;2.87;;;2.80;99.90;4.60;98640.00;;;;5032282;28;20654;-73
2024/01/17 16:46:49;;;;;;;0.30;0.30;;;2.40;99.90;4.30;98624.00;;;;5030453;28;20220;-73
2024/01/17 16:49:54;;;;;;;2.77;2.67;;;2.20;99.90;4.60;98595.00;;;;5032680;28;20237;-73
2024/01/17 16:52:34;;;;;;;0.30;0.30;;;2.20;99.90;4.90;98611.00;;;;5008864;28;20237;-73
2024/01/17 16:55:00;;;;;;;1.07;1.07;;;2.20;99.90;5.50;98634.00;;;;5046921;28;20187;-74
2024/01/17 16:57:26;;;;;;;0.57;0.57;;;2.60;99.90;5.40;98640.00;;;;5026523;28;20179;-74
2024/01/17 16:59:55;;;;;;;0.60;0.60;;;2.60;99.90;5.00;98657.00;;;;5032249;28;20214;-73
2024/01/17 17:02:25;;;;;;;0.30;0.30;;;2.60;99.90;4.10;98638.00;;;;5033852;28;20194;-73
2024/01/17 17:04:50;;;;;;;0.20;0.20;;;2.30;99.90;4.90;98647.00;;;;5033286;28;20182;-73
2024/01/17 17:07:37;;;;;;;10.33;7.10;;;2.30;99.90;4.30;98633.00;;;;5031871;28;20274;-73
2024/01/17 17:10:47;;;;;;;0.30;0.30;;;2.20;99.90;5.30;98636.00;;;;5015990;28;20222;-74
2024/01/17 17:13:21;;;;;;;0.27;0.27;;;2.30;99.90;5.30;98614.00;;;;5015059;28;20210;-74
2024/01/17 17:15:56;;;;;;;0.97;0.70;;;2.50;99.90;5.20;98682.00;;;;5019422;28;20262;-72
2024/01/17 17:18:40;;;;;;;0.60;0.60;;;2.50;99.90;4.80;98653.00;;;;5024658;28;20251;-73
2024/01/17 17:21:12;;;;;;;0.60;0.60;;;2.30;99.90;5.10;98675.00;;;;5035041;28;20241;-73
2024/01/17 17:23:54;;;;;;;0.30;0.30;;;2.40;99.90;5.30;98670.00;;;;5027328;28;20186;-74
2024/01/17 17:26:49;;;;;;;0.40;0.40;;;2.40;99.90;5.00;98684.00;;;;5021354;28;20194;-74
2024/01/17 17:29:18;;;;;;;0.27;0.27;;;2.50;99.90;5.30;98690.00;;;;5028681;28;20183;-74
2024/01/17 17:32:21;;;;;;;0.40;0.40;;;2.50;99.90;5.10;98644.00;;;;5032842;28;20214;-74
2024/01/17 17:34:58;;;;;;;0.60;0.60;;;2.50;99.90;5.50;98699.00;;;;5026039;28;20197;-74
2024/01/17 17:37:52;;;;;;;1.43;1.43;;;2.60;99.90;4.10;98697.00;;;;5031446;28;20218;-83
2024/01/17 17:40:26;;;;;;;0.50;0.50;;;2.30;99.90;3.90;98683.00;;;;5027552;28;20692;-77
2024/01/17 17:42:55;;;;;;;1.50;1.47;;;1.90;99.90;4.50;98616.00;;;;5030655;28;20213;-74
2024/01/17 17:45:21;;;;;;;0.20;0.20;;;2.00;99.90;4.80;98661.00;;;;5032040;28;20175;-74
2024/01/17 17:48:03;;;;;;;0.87;0.70;;;2.10;99.90;4.90;98680.00;;;;5031418;28;20237;-75
2024/01/17 17:50:39;;;;;;;0.30;0.30;;;2.20;99.90;4.00;98679.00;;;;5043200;28;20553;-74
2024/01/17 17:53:25;;;;;;;3.23;1.03;;;2.00;99.90;5.30;98670.00;;;;5031454;28;20206;-73
2024/01/17 17:55:54;;;;;;;0.20;0.20;;;2.20;99.90;5.60;98684.00;;;;5031442;28;20278;-74
2024/01/17 17:58:20;;;;;;;0.73;0.73;;;2.60;99.90;5.10;98717.00;;;;5015962;28;20195;-78
2024/01/17 18:00:48;;;;;;;9.87;9.20;;;2.50;99.90;5.20;98725.00;;;;5015282;28;20229;-80
2024/01/17 18:03:38;;;;;;;2.23;2.13;;;2.50;99.90;5.50;98729.00;;;;5030257;28;20198;-77
2024/01/17 18:06:45;;;;;;;1.57;1.50;;;2.60;99.90;5.40;98755.00;;;;5028305;28;20480;-77
2024/01/17 18:10:00;;;;;;;1.30;1.30;;;2.80;99.90;5.30;98770.00;;;;5015403;28;20198;-77
2024/01/17 18:13:24;;;;;;;0.77;0.77;;;2.90;99.90;5.20;98682.00;;;;5017263;28;20214;-77
2024/01/17 18:16:33;;;;;;;1.60;1.60;;;2.40;99.90;5.40;98765.00;;;;5024056;28;20187;-76
2024/01/17 18:19:34;;;;;;;1.30;1.30;;;2.60;99.90;5.50;98781.00;;;;5019551;28;20194;-77
2024/01/17 18:22:17;;;;;;;0.87;0.87;;;2.90;99.90;4.90;98797.00;;;;5020997;28;20587;-77
2024/01/17 18:25:06;;;;;;;1.47;1.47;;;2.50;99.90;5.10;98783.00;;;;5028558;28;20175;-77
2024/01/17 18:27:52;;;;;;;0.40;0.40;;;2.50;99.90;5.70;98773.00;;;;5048600;28;20195;-77
2024/01/17 18:31:06;;;;;;;1.53;0.97;;;2.60;99.90;6.10;98797.00;;;;5052046;28;20190;-77
2024/01/17 18:34:30;;;;;;;0.30;0.30;;;2.70;99.90;6.20;98808.00;;;;5032763;28;20280;-78
2024/01/17 18:37:27;;;;;;;0.30;0.30;;;2.90;99.90;7.00;98805.00;;;;5031198;28;20190;-77
2024/01/17 18:40:40;;;;;;;0.20;0.20;;;3.40;99.90;6.90;98830.00;;;;5044368;28;20227;-78
2024/01/17 18:43:27;;;;;;;0.77;0.77;;;3.60;99.90;7.20;98826.00;;;;5022903;28;20645;-77
2024/01/17 18:46:14;;;;;;;0.30;0.30;;;3.70;99.90;7.10;98843.00;;;;5030335;28;20252;-77
2024/01/17 18:48:58;;;;;;;5.07;2.57;;;3.70;99.90;6.10;98845.00;;;;5047884;28;20328;-77
2024/01/17 18:51:46;;;;;;;1.00;1.00;;;3.30;99.90;6.60;98846.00;;;;5032503;28;20182;-78
2024/01/17 18:54:31;;;;;;;2.00;1.90;;;3.30;99.90;7.20;98843.00;;;;5047223;28;20205;-78
2024/01/17 18:57:11;;;;;;;0.40;0.40;;;3.50;99.90;6.20;98849.00;;;;5035051;28;20649;-78
2024/01/17 19:00:03;;;;;;;0.30;0.30;;;3.40;99.90;5.90;98845.00;;;;5019469;28;20187;-77
2024/01/17 19:02:38;;;;;;;1.47;1.47;;;3.00;99.90;6.20;98831.00;;;;5043466;28;20202;-76
2024/01/17 19:05:20;;;;;;;0.87;0.83;;;3.00;99.90;5.80;98826.00;;;;5023314;28;20193;-72
2024/01/17 19:08:10;;;;;;;0.30;0.30;;;3.20;99.90;6.60;98828.00;;;;5032186;28;20179;-73
2024/01/17 19:10:52;;;;;;;1.00;0.90;;;3.30;99.90;7.10;98812.00;;;;5020984;28;20641;-73
2024/01/17 19:13:44;;;;;;;1.10;1.03;;;3.50;99.90;6.80;98803.00;;;;5056816;28;20264;-76
2024/01/17 19:16:12;;;;;;;0.63;0.63;;;3.70;99.90;6.70;98810.00;;;;5028987;28;20711;-75
2024/01/17 19:19:05;;;;;;;2.30;2.20;;;3.50;99.90;6.90;98853.00;;;;5026150;28;20265;-75
2024/01/17 19:22:00;;;;;;;0.47;0.47;;;3.50;99.90;6.20;98880.00;;;;5018231;28;20629;-75
2024/01/17 19:24:57;;;;;;;0.30;0.30;;;3.60;99.90;6.20;98864.00;;;;5026564;28;20226;-75
2024/01/17 19:28:00;;;;;;;1.50;1.40;;;3.10;99.90;6.60;98859.00;;;;5029613;28;20680;-75
2024/01/17 19:30:29;;;;;;;2.87;1.23;;;3.30;99.90;6.40;98868.00;;;;5032763;28;20570;-76
2024/01/17 19:33:40;;;;;;;1.17;0.83;;;3.30;99.90;6.70;98875.00;;;;5026660;28;20269;-75
2024/01/17 19:36:51;;;;;;;1.20;0.60;;;3.30;99.90;6.40;98889.00;;;;5033106;28;20418;-75
2024/01/17 19:39:57;;;;;;;0.70;0.70;;;3.50;99.90;6.10;98899.00;;;;5034593;28;20178;-75
2024/01/17 19:43:00;;;;;;;1.17;0.77;;;3.40;99.90;5.80;98847.00;;;;5015030;28;20203;-76